Raton, New Mexico
Current Conditions -  °F | °C
As of 3:53 PM on Friday 28 Nov 2014 (Local Time) from KRTN Reporting Station
Clear Clear  
Wind Chill: 57°   Ceiling: Unl
Heat Index: 57°   Visibility: 10mi
Dew Point:   Wind: 6mph
Humidity: 15%   Direction: 190°S
Pressure: 29.98"   Gusts: NA
Location:  36.91°N, 104.43°W
Report Text: KRTN 282253Z AUTO 19005KT 10SM CLR 14/M13 A2998 RMK AO2 SLP121 T01391128
Loading
Personal Weather Stations






























Interactive Weather Map New forecast layout! Learn more

10-Day Weather Forecast

Advertisements
Track Severe Weather on mobile